Time;durP1;ratioP1;P1;durP2;ratioP2;P2;SDS_P1;SDS_P2;PMS_P1;PMS_P2;Temp;Humidity;BMP_temperature;BMP_pressure;BME280_temperature;BME280_humidity;BME280_pressure;Samples;Min_cycle;Max_cycle;Signal;HPM_P1;HPM_P2
2023/01/18 00:00:28;;;;;;;2.92;2.60;;;22.50;44.10;;;16.90;56.26;98902.56;4216782;28;20085;-76
2023/01/18 00:02:30;;;;;;;2.35;2.25;;;22.60;44.10;;;16.87;56.68;98900.41;4216757;28;20052;-75
2023/01/18 00:04:37;;;;;;;2.63;2.42;;;22.50;44.10;;;16.85;56.63;98902.56;4216326;28;20040;-76
2023/01/18 00:06:40;;;;;;;2.50;2.30;;;22.60;44.10;;;16.84;56.75;98907.16;4217839;28;20064;-75
2023/01/18 00:08:42;;;;;;;2.95;2.40;;;22.50;44.10;;;16.83;56.64;98910.09;4216388;28;20044;-76
2023/01/18 00:10:44;;;;;;;3.55;2.50;;;22.50;44.20;;;16.81;56.64;98910.38;4216587;28;20044;-75
2023/01/18 00:12:47;;;;;;;2.38;2.17;;;22.50;44.20;;;16.78;56.79;98917.09;4216681;28;20048;-76
2023/01/18 00:14:49;;;;;;;2.78;2.58;;;22.50;44.10;;;16.77;56.90;98904.63;4216412;28;20056;-77
2023/01/18 00:16:51;;;;;;;2.70;2.50;;;22.50;44.20;;;16.75;56.54;98909.50;4216456;28;20108;-75
2023/01/18 00:18:57;;;;;;;2.42;2.28;;;22.50;44.20;;;16.73;56.70;98913.50;4217355;28;20363;-77
2023/01/18 00:21:08;;;;;;;2.88;2.38;;;22.40;44.20;;;16.71;56.46;98918.38;4216709;28;20184;-76
2023/01/18 00:23:10;;;;;;;2.60;2.40;;;22.40;44.20;;;16.68;56.55;98914.28;4216586;28;20113;-77
2023/01/18 00:25:12;;;;;;;3.08;2.63;;;22.40;44.20;;;16.67;56.99;98915.34;4217212;28;20055;-76
2023/01/18 00:27:14;;;;;;;2.58;2.38;;;22.30;44.20;;;16.66;56.85;98916.44;4216145;28;20055;-78
2023/01/18 00:29:17;;;;;;;2.40;2.20;;;22.30;44.20;;;16.66;56.73;98923.75;4216552;28;20048;-75
2023/01/18 00:31:21;;;;;;;2.60;2.40;;;22.30;44.20;;;16.63;56.82;98916.94;4216151;28;20125;-75
2023/01/18 00:33:23;;;;;;;2.30;2.10;;;22.30;44.20;;;16.61;56.79;98920.94;4215926;28;20098;-75
2023/01/18 00:35:27;;;;;;;2.70;2.50;;;22.30;44.20;;;16.59;57.28;98918.50;4216249;28;20048;-75
2023/01/18 00:37:31;;;;;;;2.40;2.20;;;22.30;44.30;;;16.58;56.89;98924.97;4216413;28;20048;-76
2023/01/18 00:39:33;;;;;;;2.65;2.45;;;22.30;44.30;;;16.57;57.08;98927.94;4215610;28;20047;-75
2023/01/18 00:43:37;;;;;;;2.60;2.40;;;22.30;44.30;;;16.54;56.85;98923.84;4215990;28;20117;-75
2023/01/18 00:43:57;;;;;;;2.50;2.30;;;22.30;44.30;;;16.51;56.96;98929.75;4215614;28;20137;-76
2023/01/18 00:45:59;;;;;;;2.63;2.20;;;22.30;44.30;;;16.52;57.15;98927.88;4216261;28;20058;-76
2023/01/18 00:48:01;;;;;;;2.47;2.30;;;22.20;44.30;;;16.49;57.07;98929.19;4216142;28;20032;-75
2023/01/18 00:50:04;;;;;;;2.58;2.38;;;22.20;44.30;;;16.48;57.18;98927.53;4215853;28;20075;-76
2023/01/18 00:52:06;;;;;;;2.53;2.33;;;22.20;44.30;;;16.46;57.06;98926.97;4217153;28;20048;-76
2023/01/18 00:54:10;;;;;;;2.60;2.40;;;22.20;44.30;;;16.44;57.40;98935.38;4215857;28;20422;-75
2023/01/18 00:56:21;;;;;;;2.55;2.35;;;22.20;44.30;;;16.43;57.21;98927.50;4216099;28;20052;-75
2023/01/18 00:58:23;;;;;;;2.50;2.30;;;22.20;44.30;;;16.41;57.32;98930.47;4215821;28;20497;-75
2023/01/18 01:00:25;;;;;;;2.80;2.60;;;22.20;44.40;;;16.39;57.35;98937.19;4216162;28;20052;-75
2023/01/18 01:02:27;;;;;;;2.38;2.13;;;22.20;44.40;;;16.39;56.99;98926.38;4215638;28;20043;-76
2023/01/18 01:06:50;;;;;;;2.55;2.35;;;22.10;44.40;;;16.33;57.42;98933.59;4215314;28;20070;-76
2023/01/18 01:08:52;;;;;;;2.53;2.33;;;22.10;44.40;;;16.35;57.52;98936.06;4215962;28;20036;-76
2023/01/18 01:11:09;;;;;;;2.60;2.40;;;22.10;44.40;;;16.32;57.19;98933.84;4215216;28;20059;-75
2023/01/18 01:27:14;;;;;;;2.60;2.40;;;22.00;44.50;;;16.21;57.36;98948.31;4215578;28;20132;-77
2023/01/18 01:29:16;;;;;;;2.42;2.22;;;22.00;44.50;;;16.21;57.61;98949.16;4215200;28;20086;-75
2023/01/18 01:31:20;;;;;;;2.78;2.40;;;22.00;44.50;;;16.21;57.36;98956.44;4215211;28;20052;-76
2023/01/18 01:33:22;;;;;;;2.65;2.40;;;21.90;44.50;;;16.18;57.47;98955.06;4215704;28;20069;-74
2023/01/18 01:35:24;;;;;;;2.70;2.22;;;21.90;44.50;;;16.18;57.37;98951.53;4215193;28;20052;-75
2023/01/18 01:37:26;;;;;;;3.33;2.55;;;21.90;44.50;;;16.17;57.50;98955.28;4215163;28;20455;-73
2023/01/18 01:39:29;;;;;;;2.47;2.28;;;21.90;44.50;;;16.17;57.34;98955.28;4215120;28;20044;-74
2023/01/18 01:41:35;;;;;;;2.40;2.20;;;21.90;44.50;;;16.15;57.65;98957.44;4215323;28;20047;-75
2023/01/18 01:43:47;;;;;;;2.90;2.45;;;21.90;44.50;;;16.13;57.57;98965.78;4216060;28;20048;-75
2023/01/18 01:45:49;;;;;;;2.70;2.50;;;21.90;44.50;;;16.13;57.73;98970.38;4214888;28;20378;-74
2023/01/18 01:47:54;;;;;;;2.47;2.30;;;21.90;44.50;;;16.11;57.39;98966.03;4214851;28;20090;-77
2023/01/18 01:50:07;;;;;;;2.50;2.30;;;21.90;44.50;;;16.10;57.42;98972.50;4215787;28;20077;-76
2023/01/18 01:52:15;;;;;;;2.50;2.30;;;21.90;44.50;;;16.08;57.39;98971.94;4214459;28;20051;-76
2023/01/18 01:54:25;;;;;;;2.40;2.20;;;21.80;44.60;;;16.06;57.40;98974.06;4214938;28;20691;-74
2023/01/18 01:56:29;;;;;;;2.53;2.33;;;21.80;44.60;;;16.05;57.41;98972.44;4214636;28;20044;-74
2023/01/18 01:58:32;;;;;;;2.33;2.13;;;21.80;44.60;;;16.06;57.61;98975.94;4216171;28;20044;-76
2023/01/18 02:00:36;;;;;;;2.33;2.22;;;21.80;44.60;;;16.05;57.49;98968.91;4214754;28;20047;-75
2023/01/18 02:02:43;;;;;;;2.25;2.05;;;21.80;44.60;;;16.04;57.48;98975.38;4214722;28;20036;-76
2023/01/18 02:04:52;;;;;;;2.45;2.25;;;21.70;44.60;;;16.02;57.45;98975.63;4215027;28;20121;-75
2023/01/18 02:06:54;;;;;;;2.53;2.30;;;21.70;44.60;;;16.00;57.70;98975.09;4214864;28;20128;-76
2023/01/18 02:08:58;;;;;;;2.40;2.30;;;21.70;44.70;;;16.00;57.54;98980.50;4214560;28;20051;-75
2023/01/18 02:11:00;;;;;;;2.25;2.15;;;21.70;44.70;;;15.99;57.32;98975.34;4214125;28;20051;-75
2023/01/18 02:13:04;;;;;;;2.70;2.50;;;21.70;44.70;;;15.98;57.85;98976.41;4214826;28;20051;-75
2023/01/18 02:15:09;;;;;;;2.63;2.42;;;21.70;44.70;;;15.98;57.53;98973.69;4215543;28;20449;-75
2023/01/18 02:17:42;;;;;;;2.22;2.03;;;21.70;44.60;;;15.94;57.32;98972.56;4214292;28;20093;-77
2023/01/18 02:20:44;;;;;;;2.40;2.20;;;21.70;44.60;;;15.89;57.25;98972.47;4214614;28;20504;-75
2023/01/18 02:23:57;;;;;;;2.40;2.20;;;21.70;44.60;;;15.86;57.45;98972.97;4215434;28;20475;-75
2023/01/18 02:27:00;;;;;;;2.30;2.10;;;21.60;44.60;;;15.82;57.43;98964.53;4214374;28;20387;-75
2023/01/18 02:29:16;;;;;;;2.33;2.20;;;21.60;44.70;;;15.83;57.54;98970.75;4169145;28;20054;-74
2023/01/18 02:31:26;;;;;;;2.92;2.53;;;21.60;44.70;;;15.82;57.82;98967.22;4214221;28;20062;-76
2023/01/18 02:33:38;;;;;;;;;;;21.60;44.80;;;15.71;57.35;98978.97;4215202;28;20056;-75
2023/01/18 02:35:52;;;;;;;2.35;2.17;;;21.60;44.90;;;15.75;57.78;98974.72;4214258;28;19927;-75
2023/01/18 02:38:10;;;;;;;2.45;2.28;;;21.60;44.80;;;15.75;57.79;98982.81;4215220;28;20048;-76
2023/01/18 02:40:25;;;;;;;2.60;2.40;;;21.50;44.80;;;15.76;57.79;98987.16;4214175;28;20048;-76
2023/01/18 02:47:12;;;;;;;2.45;2.30;;;21.50;44.80;;;15.71;57.96;98984.38;4214409;28;20051;-76
2023/01/18 02:49:30;;;;;;;2.83;2.40;;;21.50;44.90;;;15.71;58.03;98989.75;4214286;28;20336;-73
2023/01/18 02:51:33;;;;;;;2.50;2.30;;;21.50;44.80;;;15.71;58.22;98989.75;4214382;28;20131;-73
2023/01/18 02:53:43;;;;;;;2.55;2.35;;;21.50;44.90;;;15.69;58.03;98992.72;4214373;28;20036;-75
2023/01/18 02:55:55;;;;;;;2.55;2.35;;;21.50;44.90;;;15.68;57.89;98987.56;4214265;28;20117;-76
2023/01/18 02:58:07;;;;;;;2.20;2.03;;;21.50;44.90;;;15.65;58.08;98991.56;4213930;28;20044;-76
2023/01/18 03:00:17;;;;;;;2.63;2.28;;;21.40;44.90;;;15.64;58.05;99002.59;4215167;28;20051;-75
2023/01/18 03:02:26;;;;;;;2.60;2.40;;;21.40;44.90;;;15.62;58.09;98992.03;4213807;28;20126;-75
2023/01/18 03:04:37;;;;;;;2.50;2.13;;;21.40;44.90;;;15.61;58.28;98995.00;4213938;28;20047;-76
2023/01/18 03:06:47;;;;;;;2.30;2.20;;;21.40;44.90;;;15.59;58.16;99002.56;4213553;28;20060;-75
2023/01/18 03:08:53;;;;;;;;;;;21.40;44.90;;;15.47;57.31;99007.16;4214526;28;20317;-76
2023/01/18 03:11:07;;;;;;;2.25;2.15;;;21.30;45.00;;;15.50;58.24;98996.69;4215250;28;19919;-74
2023/01/18 03:13:25;;;;;;;2.40;2.25;;;21.30;45.00;;;15.51;58.31;99001.03;4213667;28;20040;-75
2023/01/18 03:15:47;;;;;;;2.22;2.13;;;21.30;45.00;;;15.50;58.16;98998.56;4213918;28;20397;-76
2023/01/18 03:17:57;;;;;;;2.15;1.98;;;21.30;45.00;;;15.51;58.16;98992.09;4213462;28;20101;-76
2023/01/18 03:20:09;;;;;;;2.47;2.28;;;21.30;45.00;;;15.50;58.31;98998.56;4214185;28;20058;-74
2023/01/18 03:22:11;;;;;;;2.35;2.17;;;21.30;45.10;;;15.49;58.69;98999.63;4213791;28;20371;-73
2023/01/18 03:24:17;;;;;;;2.60;2.40;;;21.30;45.10;;;15.49;58.27;99003.16;4213750;28;20377;-75
2023/01/18 03:26:23;;;;;;;2.28;2.13;;;21.30;45.00;;;15.48;58.42;98995.28;4213731;28;20052;-75
2023/01/18 03:33:47;;;;;;;2.22;2.13;;;21.30;45.10;;;15.41;58.80;99007.06;4213505;28;20101;-75
2023/01/18 03:35:55;;;;;;;2.22;2.10;;;21.20;45.10;;;15.41;58.29;99006.25;4213628;28;20137;-75
2023/01/18 03:37:59;;;;;;;2.42;2.22;;;21.20;45.10;;;15.40;58.26;99002.72;4214057;28;20480;-77
2023/01/18 03:40:10;;;;;;;2.55;2.35;;;21.20;45.10;;;15.40;58.24;99015.41;4214443;28;20176;-77
2023/01/18 03:42:18;;;;;;;;;;;21.20;45.10;;;15.27;58.08;99004.94;4213784;28;20109;-75
2023/01/18 03:44:33;;;;;;;2.22;2.08;;;21.20;45.20;;;15.31;58.65;99006.91;4213545;28;19927;-74
2023/01/18 03:46:42;;;;;;;2.35;2.20;;;21.10;45.20;;;15.33;58.67;99010.19;4213959;28;20427;-76
2023/01/18 03:48:44;;;;;;;2.70;2.50;;;21.10;45.20;;;15.34;58.81;99022.63;4213643;28;20358;-75
2023/01/18 03:50:53;;;;;;;2.30;2.20;;;21.10;45.20;;;15.34;58.40;99028.03;4214466;28;20036;-75
2023/01/18 03:53:06;;;;;;;2.40;2.20;;;21.10;45.20;;;15.33;58.58;99021.00;4214252;28;20043;-75
2023/01/18 03:55:20;;;;;;;2.33;2.13;;;21.10;45.20;;;15.32;58.50;99027.44;4213832;28;20055;-74
2023/01/18 03:57:35;;;;;;;2.25;2.10;;;21.10;45.20;;;15.32;58.62;99032.03;4213573;28;20051;-73
2023/01/18 03:59:39;;;;;;;2.10;2.00;;;21.10;45.20;;;15.32;58.58;99040.13;4213398;28;20443;-74
2023/01/18 04:01:43;;;;;;;2.55;2.35;;;21.10;45.20;;;15.32;58.50;99040.13;4213367;28;20339;-74
2023/01/18 04:03:45;;;;;;;2.47;2.28;;;21.10;45.30;;;15.31;58.45;99041.19;4213693;28;20371;-77
2023/01/18 04:05:48;;;;;;;2.10;2.00;;;21.00;45.30;;;15.31;58.45;99052.81;4213191;28;20044;-76
2023/01/18 04:07:50;;;;;;;2.55;2.35;;;21.00;45.30;;;15.30;58.62;99043.06;4213262;28;20059;-77
2023/01/18 04:09:53;;;;;;;2.42;2.22;;;21.00;45.30;;;15.31;58.68;99054.69;4213249;28;20048;-75
2023/01/18 04:11:55;;;;;;;2.40;2.20;;;21.10;45.30;;;15.30;58.66;99053.88;4214835;28;20109;-75
2023/01/18 04:13:57;;;;;;;2.20;2.10;;;21.00;45.30;;;15.29;58.59;99052.22;4214304;28;20040;-76
2023/01/18 04:15:59;;;;;;;2.30;2.20;;;21.00;45.30;;;15.31;58.58;99062.78;4216230;28;20047;-75
2023/01/18 04:18:02;;;;;;;2.30;2.17;;;21.00;45.30;;;15.30;58.42;99061.97;4216495;28;20044;-77
2023/01/18 04:20:07;;;;;;;2.22;2.03;;;21.00;45.30;;;15.29;58.47;99057.63;4216613;28;20139;-75
2023/01/18 04:22:10;;;;;;;2.03;1.92;;;21.00;45.30;;;15.28;58.74;99056.00;4217043;28;20051;-75
2023/01/18 04:24:12;;;;;;;2.30;2.15;;;21.00;45.30;;;15.28;58.42;99063.28;4216286;28;20059;-76
2023/01/18 04:26:15;;;;;;;2.35;2.15;;;21.00;45.30;;;15.27;58.71;99065.16;4216681;28;20040;-74
2023/01/18 04:28:24;;;;;;;2.10;2.00;;;21.00;45.30;;;15.26;58.75;99062.69;4215709;28;20409;-77
2023/01/18 04:30:26;;;;;;;2.40;2.20;;;21.00;45.30;;;15.25;58.48;99069.16;4216978;28;20056;-73
2023/01/18 04:32:28;;;;;;;2.35;2.20;;;21.00;45.40;;;15.25;58.47;99064.56;4216133;28;20040;-75
2023/01/18 04:34:31;;;;;;;2.45;2.25;;;20.90;45.30;;;15.24;58.64;99059.41;4217340;28;20043;-74
2023/01/18 04:36:34;;;;;;;2.42;2.22;;;20.90;45.30;;;15.24;58.40;99064.81;4216094;28;20443;-75
2023/01/18 04:38:36;;;;;;;2.15;2.03;;;20.90;45.40;;;15.24;58.64;99064.81;4216218;28;20047;-74
2023/01/18 04:40:38;;;;;;;2.10;2.00;;;20.90;45.40;;;15.25;58.77;99069.97;4216245;28;20471;-74
2023/01/18 04:42:40;;;;;;;2.13;2.03;;;20.90;45.30;;;15.23;58.50;99069.38;4216095;28;20409;-77
2023/01/18 04:44:42;;;;;;;2.13;2.03;;;20.90;45.40;;;15.23;58.46;99073.97;4215965;28;20054;-76
2023/01/18 04:46:44;;;;;;;2.47;2.28;;;20.90;45.40;;;15.22;58.69;99073.16;4216188;28;20052;-75
2023/01/18 04:48:51;;;;;;;2.60;2.40;;;20.90;45.40;;;15.21;58.67;99066.09;4215964;28;20048;-76
2023/01/18 04:50:54;;;;;;;2.28;2.15;;;20.90;45.30;;;15.20;58.47;99071.75;4216749;28;20040;-76
2023/01/18 04:52:58;;;;;;;2.28;2.10;;;20.90;45.40;;;15.19;58.46;99073.63;4215714;28;20048;-75
2023/01/18 04:55:00;;;;;;;2.20;2.00;;;20.90;45.40;;;15.17;58.54;99077.63;4215628;28;20059;-76
2023/01/18 04:57:02;;;;;;;2.20;2.08;;;20.90;45.40;;;15.17;58.62;99075.75;4216166;28;20052;-77
2023/01/18 04:59:05;;;;;;;2.40;2.20;;;20.80;45.40;;;15.18;58.54;99082.78;4215735;28;20509;-75
2023/01/18 05:01:12;;;;;;;2.17;2.08;;;20.80;45.40;;;15.18;58.66;99079.25;4215527;28;20044;-77
2023/01/18 05:03:15;;;;;;;2.25;2.15;;;20.80;45.40;;;15.17;58.25;99086.53;4215760;28;20044;-76
2023/01/18 05:05:17;;;;;;;2.53;2.33;;;20.80;45.40;;;15.16;58.33;99079.50;4216543;28;20044;-75
2023/01/18 05:07:25;;;;;;;2.35;2.15;;;20.80;45.40;;;15.16;58.72;99081.38;4215540;28;20055;-75
2023/01/18 05:09:27;;;;;;;2.58;2.38;;;20.80;45.40;;;15.15;58.58;99088.69;4215538;28;20055;-75
2023/01/18 05:11:29;;;;;;;2.00;1.90;;;20.80;45.40;;;15.15;58.65;99093.25;4215678;28;20101;-76
2023/01/18 05:13:31;;;;;;;2.22;2.13;;;20.80;45.40;;;15.15;58.73;99101.38;4215528;28;20051;-76
2023/01/18 05:15:33;;;;;;;2.00;1.90;;;20.80;45.40;;;15.14;58.45;99103.25;4215536;28;20410;-76
2023/01/18 05:17:36;;;;;;;2.10;2.00;;;20.80;45.40;;;15.14;58.60;99097.84;4215458;28;20422;-74
2023/01/18 05:19:39;;;;;;;2.20;2.10;;;20.80;45.40;;;15.15;58.73;99104.06;4215470;28;20051;-74
2023/01/18 05:21:41;;;;;;;2.10;2.00;;;20.80;45.40;;;15.14;58.65;99105.94;4215285;28;20067;-76
2023/01/18 05:23:45;;;;;;;2.75;2.55;;;20.80;45.40;;;15.14;58.34;99103.25;4215280;28;20044;-77
2023/01/18 05:25:53;;;;;;;2.15;2.05;;;20.80;45.40;;;15.13;58.47;99107.00;4216424;28;20059;-75
2023/01/18 05:27:55;;;;;;;2.33;2.20;;;20.80;45.40;;;15.13;58.49;99107.00;4216535;28;20066;-76
2023/01/18 05:29:58;;;;;;;2.17;2.08;;;20.80;45.40;;;15.13;58.57;99107.00;4215274;28;20059;-77
2023/01/18 05:32:00;;;;;;;2.20;2.10;;;20.80;45.40;;;15.13;58.44;99114.28;4214991;28;20044;-75
2023/01/18 05:34:02;;;;;;;2.20;2.10;;;20.80;45.40;;;15.14;58.43;99113.22;4215655;28;20117;-76
2023/01/18 05:36:05;;;;;;;2.20;2.10;;;20.80;45.40;;;15.13;58.40;99111.56;4215263;28;20052;-74
2023/01/18 05:38:07;;;;;;;2.28;2.15;;;20.80;45.40;;;15.12;58.32;99109.94;4215134;28;20328;-76
2023/01/18 05:40:13;;;;;;;2.42;2.22;;;20.80;45.40;;;15.13;58.44;99114.28;4214886;28;20048;-75
2023/01/18 05:42:15;;;;;;;2.08;1.98;;;20.80;45.30;;;15.12;58.62;99113.44;4215274;28;20147;-76
2023/01/18 05:44:17;;;;;;;2.20;2.10;;;20.80;45.40;;;15.12;58.47;99126.94;4214745;28;20104;-75
2023/01/18 05:46:19;;;;;;;2.85;2.20;;;20.80;45.40;;;15.12;58.28;99120.72;4214915;28;20048;-77
2023/01/18 05:48:22;;;;;;;2.00;1.90;;;20.70;45.40;;;15.11;58.45;99125.31;4214965;28;20056;-77
2023/01/18 05:50:24;;;;;;;2.25;2.00;;;20.80;45.30;;;15.11;58.45;99130.72;4215169;28;20500;-75
2023/01/18 05:52:26;;;;;;;2.42;2.22;;;20.80;45.40;;;15.11;58.54;99130.72;4215859;28;20427;-75
2023/01/18 05:54:28;;;;;;;2.28;2.08;;;20.80;45.40;;;15.11;58.27;99125.31;4215104;28;20132;-75
2023/01/18 05:56:32;;;;;;;2.83;2.20;;;20.80;45.40;;;15.12;58.58;99131.53;4215380;28;20489;-76
2023/01/18 05:58:35;;;;;;;2.47;2.17;;;20.80;45.40;;;15.12;58.27;99136.94;4214517;28;20055;-74
2023/01/18 06:00:37;;;;;;;2.10;1.90;;;20.80;45.40;;;15.12;58.20;99139.63;4214846;28;20044;-75
2023/01/18 06:02:39;;;;;;;2.40;2.20;;;20.80;45.40;;;15.13;58.21;99138.56;4214680;28;20485;-77
2023/01/18 06:04:43;;;;;;;2.25;2.13;;;20.80;45.30;;;15.11;58.21;99133.41;4215033;28;20457;-75
2023/01/18 06:06:45;;;;;;;2.65;2.17;;;20.80;45.30;;;15.09;58.44;99140.91;4215347;28;20048;-74
2023/01/18 06:08:47;;;;;;;2.35;2.25;;;20.70;45.30;;;15.09;58.54;99140.91;4214718;28;20044;-75
2023/01/18 06:10:57;;;;;;;2.40;2.20;;;20.80;45.30;;;15.12;58.53;99145.03;4214832;28;20040;-76
2023/01/18 06:13:01;;;;;;;;;;;20.80;45.30;;;15.02;58.36;99153.72;4215276;28;20040;-75
2023/01/18 06:15:04;;;;;;;2.13;2.00;;;20.80;45.50;;;15.14;58.82;99161.81;4214416;28;19919;-75
2023/01/18 06:17:07;;;;;;;2.00;1.90;;;20.80;45.40;;;15.21;58.33;99157.06;4214680;28;20044;-76
2023/01/18 06:19:10;;;;;;;2.35;2.15;;;20.80;45.40;;;15.26;58.30;99163.41;4214964;28;20044;-76
2023/01/18 06:21:12;;;;;;;2.20;2.10;;;20.90;45.30;;;15.32;58.18;99161.63;4214128;28;20105;-75
2023/01/18 06:23:14;;;;;;;2.38;2.17;;;20.90;45.30;;;15.36;58.28;99165.50;4214372;28;20048;-74
2023/01/18 06:25:16;;;;;;;2.60;2.20;;;20.90;45.30;;;15.40;58.15;99172.84;4214534;28;20055;-77
2023/01/18 06:27:19;;;;;;;2.30;2.10;;;21.00;45.20;;;15.43;57.94;99172.38;4215688;28;20107;-76
2023/01/18 06:29:22;;;;;;;2.30;2.10;;;21.00;45.20;;;15.47;58.05;99175.41;4214318;28;20101;-75
2023/01/18 06:31:24;;;;;;;2.10;1.95;;;21.00;45.10;;;15.49;57.93;99167.91;4214178;28;20048;-75
2023/01/18 06:33:26;;;;;;;2.20;2.10;;;21.10;45.00;;;15.53;57.65;99176.34;4214444;28;20063;-75
2023/01/18 06:35:28;;;;;;;2.00;1.83;;;21.10;45.00;;;15.55;57.98;99182.34;4214452;28;20059;-76
2023/01/18 06:37:30;;;;;;;2.10;2.00;;;21.10;44.90;;;15.56;57.76;99184.81;4213698;28;20052;-76
2023/01/18 06:39:32;;;;;;;2.00;1.90;;;21.20;44.90;;;15.57;57.61;99191.88;4214223;28;20455;-76
2023/01/18 06:41:34;;;;;;;2.00;1.90;;;21.20;44.80;;;15.58;57.51;99192.69;4214532;28;20048;-76
2023/01/18 06:43:36;;;;;;;2.10;2.00;;;21.20;44.80;;;15.58;57.31;99185.41;4214732;28;20413;-75
2023/01/18 06:45:40;;;;;;;2.38;2.17;;;21.20;44.70;;;15.59;57.77;99192.44;4214182;28;20055;-75
2023/01/18 06:47:42;;;;;;;2.45;2.25;;;21.20;44.70;;;15.60;57.52;99194.06;4214704;28;20078;-76
2023/01/18 06:49:44;;;;;;;2.00;1.90;;;21.20;44.70;;;15.62;57.64;99196.53;4215150;28;20079;-75
2023/01/18 06:51:46;;;;;;;2.22;2.13;;;21.20;44.70;;;15.64;57.25;99200.63;4213942;28;20040;-73
2023/01/18 06:53:49;;;;;;;2.67;2.40;;;21.30;44.70;;;15.66;57.51;99203.91;4213860;28;20051;-76
2023/01/18 06:55:58;;;;;;;2.45;2.25;;;21.30;44.60;;;15.68;57.37;99214.47;4214912;28;20146;-75
2023/01/18 06:58:01;;;;;;;1.95;1.85;;;21.30;44.50;;;15.70;57.43;99207.78;4213751;28;20114;-76
2023/01/18 07:00:06;;;;;;;2.20;2.10;;;21.30;44.50;;;15.72;57.41;99213.78;4213706;28;20139;-76
2023/01/18 07:02:15;;;;;;;2.40;2.20;;;21.40;44.40;;;15.73;57.12;99215.41;4214179;28;20040;-75
2023/01/18 07:04:17;;;;;;;2.20;2.10;;;21.40;44.40;;;15.75;57.21;99218.69;4204968;28;20364;-75
2023/01/18 07:06:20;;;;;;;2.08;1.98;;;21.50;44.40;;;15.77;57.27;99216.56;4204406;28;20508;-76
2023/01/18 07:08:25;;;;;;;2.30;2.10;;;21.50;44.30;;;15.79;57.12;99227.16;4201935;28;20073;-76
2023/01/18 07:10:27;;;;;;;2.10;1.90;;;21.50;44.20;;;15.80;57.02;99226.09;4203232;28;20040;-77
2023/01/18 07:12:29;;;;;;;1.90;1.80;;;21.60;44.20;;;15.81;57.34;99222.28;4207903;28;20480;-75
2023/01/18 07:14:31;;;;;;;2.30;2.20;;;21.60;44.20;;;15.81;57.16;99233.09;4203553;28;20037;-76
2023/01/18 07:16:33;;;;;;;2.00;1.90;;;21.60;44.10;;;15.82;57.23;99234.75;4196746;28;20117;-76
2023/01/18 07:18:42;;;;;;;2.38;2.17;;;21.60;44.10;;;15.83;57.06;99233.69;4205262;28;20119;-76
2023/01/18 07:20:44;;;;;;;1.90;1.80;;;21.60;44.00;;;15.83;56.88;99230.97;4213483;28;20355;-77
2023/01/18 07:22:51;;;;;;;2.28;2.15;;;21.60;44.00;;;15.83;56.71;99233.69;4213537;28;20036;-75
2023/01/18 07:24:53;;;;;;;2.25;2.13;;;21.60;44.00;;;15.84;56.81;99243.44;4214329;28;20050;-75
2023/01/18 07:26:58;;;;;;;1.90;1.80;;;21.60;44.00;;;15.85;56.88;99245.06;4207244;28;20044;-75
2023/01/18 07:29:00;;;;;;;2.10;2.00;;;21.60;44.00;;;15.87;57.07;99245.66;4196660;28;20053;-75
2023/01/18 07:31:06;;;;;;;2.25;2.10;;;21.60;44.00;;;15.90;56.71;99247.88;4197685;28;20102;-75
2023/01/18 07:33:10;;;;;;;2.10;2.00;;;21.70;44.00;;;15.91;56.84;99252.22;4197059;28;20036;-75
2023/01/18 07:35:14;;;;;;;3.25;2.95;;;21.70;43.90;;;15.94;56.74;99253.63;4205037;28;20040;-77
2023/01/18 07:37:16;;;;;;;3.13;2.80;;;21.70;43.80;;;15.97;56.64;99250.44;4210742;28;20117;-76
2023/01/18 07:39:18;;;;;;;2.80;2.60;;;21.70;43.80;;;15.99;56.60;99254.56;4203202;28;20036;-74
2023/01/18 07:41:21;;;;;;;2.97;2.78;;;21.80;43.70;;;16.00;56.35;99247.25;4197016;28;20048;-75
2023/01/18 07:43:24;;;;;;;3.15;2.85;;;21.80;43.70;;;16.03;56.70;99255.69;4205928;28;20043;-73
2023/01/18 07:45:26;;;;;;;2.88;2.67;;;21.80;43.60;;;16.04;56.36;99257.31;4213637;28;20391;-74
2023/01/18 07:47:28;;;;;;;3.28;2.97;;;21.80;43.60;;;16.07;56.38;99259.56;4214772;28;20105;-74
2023/01/18 07:49:30;;;;;;;3.30;3.00;;;21.90;43.60;;;16.09;56.46;99265.53;4215580;28;20107;-75
2023/01/18 07:51:33;;;;;;;2.88;2.67;;;21.90;43.50;;;16.15;56.70;99268.34;4216482;28;20044;-73
2023/01/18 07:53:38;;;;;;;3.25;2.95;;;21.90;43.50;;;16.18;56.56;99271.38;4217298;28;20047;-73
2023/01/18 07:55:40;;;;;;;4.47;3.10;;;22.00;43.60;;;16.22;56.39;99269.03;4216764;28;20048;-74
2023/01/18 07:57:42;;;;;;;4.15;2.75;;;22.10;43.60;;;16.26;56.38;99270.97;4216968;28;20055;-75
2023/01/18 07:59:44;;;;;;;3.17;2.88;;;22.10;43.60;;;16.31;56.50;99275.66;4216820;28;20072;-74
2023/01/18 08:01:47;;;;;;;3.58;2.72;;;22.20;43.50;;;16.34;56.65;99267.06;4216468;28;20043;-75
2023/01/18 08:03:52;;;;;;;5.40;3.20;;;22.30;43.50;;;16.38;56.86;99265.50;4216540;28;20337;-76
2023/01/18 08:05:54;;;;;;;2.97;2.70;;;22.30;43.40;;;16.42;56.75;99270.19;4217672;28;20056;-73
2023/01/18 08:07:58;;;;;;;3.15;2.75;;;22.40;43.30;;;16.48;56.61;99281.09;4216549;28;20059;-76
2023/01/18 08:10:00;;;;;;;3.17;2.95;;;22.50;43.20;;;16.52;56.48;99284.94;4216349;28;20051;-73
2023/01/18 08:12:03;;;;;;;2.78;2.55;;;22.60;43.20;;;16.55;56.55;99284.47;4216580;28;20056;-75
2023/01/18 08:14:05;;;;;;;2.92;2.63;;;22.70;43.10;;;16.60;56.58;99292.66;4216483;28;20508;-74
2023/01/18 08:16:11;;;;;;;3.45;2.67;;;22.70;43.00;;;16.63;56.24;99301.16;4216278;28;20051;-73
2023/01/18 08:18:13;;;;;;;3.35;2.70;;;22.70;42.90;;;16.66;56.23;99299.84;4216281;28;20500;-73
2023/01/18 08:20:16;;;;;;;3.58;2.80;;;22.80;42.90;;;16.70;56.44;99306.38;4216441;28;20726;-74
2023/01/18 08:22:18;;;;;;;3.35;2.80;;;22.80;42.80;;;16.73;56.38;99303.19;4216345;28;20101;-75
2023/01/18 08:24:22;;;;;;;2.80;2.60;;;22.90;42.80;;;16.76;55.98;99300.81;4216333;28;20052;-73
2023/01/18 08:26:24;;;;;;;3.03;2.72;;;22.90;42.70;;;16.80;56.21;99301.16;4216149;28;20040;-72
2023/01/18 08:28:26;;;;;;;3.42;2.80;;;23.00;42.70;;;16.83;56.25;99292.53;4216325;28;20054;-74
2023/01/18 08:30:32;;;;;;;2.95;2.65;;;23.00;42.60;;;16.86;56.14;99293.94;4216009;28;20144;-73
2023/01/18 08:32:34;;;;;;;2.83;2.60;;;23.00;42.50;;;16.89;56.23;99298.88;4216024;28;20056;-74
2023/01/18 08:34:38;;;;;;;2.78;2.47;;;23.10;42.40;;;16.92;55.90;99303.75;4216173;28;20117;-73
2023/01/18 08:36:40;;;;;;;5.15;3.00;;;23.10;42.40;;;16.94;55.73;99301.63;4216242;28;20066;-73
2023/01/18 08:38:43;;;;;;;3.15;2.50;;;23.20;42.30;;;16.97;55.88;99307.38;4216067;28;20164;-73
2023/01/18 08:40:46;;;;;;;3.50;2.47;;;23.20;42.30;;;17.01;55.56;99307.72;4215967;28;20048;-72
2023/01/18 08:42:49;;;;;;;2.80;2.47;;;23.20;42.20;;;17.02;55.68;99318.28;4216394;28;20048;-74
2023/01/18 08:44:52;;;;;;;3.00;2.80;;;23.30;42.10;;;17.06;55.66;99322.16;4215966;28;20347;-76
2023/01/18 08:46:54;;;;;;;3.03;2.75;;;23.30;42.10;;;17.09;55.42;99318.13;4216640;28;20056;-74
2023/01/18 08:48:58;;;;;;;2.80;2.60;;;23.30;42.10;;;17.12;55.35;99328.44;4215989;28;20432;-72
2023/01/18 08:51:02;;;;;;;2.70;2.45;;;23.40;42.00;;;17.14;55.12;99329.00;4216869;28;20295;-74
2023/01/18 08:53:04;;;;;;;3.10;2.80;;;23.40;41.90;;;17.17;55.28;99339.34;4215644;28;20505;-73
2023/01/18 08:55:08;;;;;;;2.90;2.70;;;23.50;41.90;;;17.20;55.37;99336.16;4215793;28;20050;-73
2023/01/18 08:57:12;;;;;;;2.70;2.50;;;23.50;41.80;;;17.23;55.12;99337.56;4215642;28;20089;-72
2023/01/18 08:59:14;;;;;;;3.05;2.60;;;23.50;41.70;;;17.25;55.24;99340.84;4215513;28;20048;-74
2023/01/18 09:01:16;;;;;;;2.95;2.65;;;23.50;41.70;;;17.29;55.10;99344.69;4215472;28;20052;-74
2023/01/18 09:03:21;;;;;;;3.15;2.85;;;23.60;41.70;;;17.32;55.06;99338.78;4215623;28;20443;-75
2023/01/18 09:05:24;;;;;;;2.70;2.50;;;23.60;41.60;;;17.36;55.22;99345.31;4215695;28;20080;-75
2023/01/18 09:07:27;;;;;;;2.60;2.40;;;23.60;41.60;;;17.38;54.75;99341.28;4215574;28;20347;-73
2023/01/18 09:09:29;;;;;;;2.72;2.47;;;23.70;41.60;;;17.43;55.04;99340.56;4215712;28;20051;-74
2023/01/18 09:11:31;;;;;;;3.92;3.30;;;23.70;41.50;;;17.45;54.87;99341.94;4215702;28;20044;-75
2023/01/18 09:13:35;;;;;;;6.32;3.78;;;23.70;41.40;;;17.52;54.25;99346.38;4215709;28;20081;-73